Terminal Aerodrome Forecast
Issued by NWS

Home | Current Version | Previous Version | Text Only | Print | Product List | Glossary On
Versions: 1 2 3 4 5 6 7 8 9 10 11 12 13 14 15 16 17 18 19
000
FTUS41 KBOX 242104 AAA
TAFACK
TAF AMD
KACK 242104Z 2421/2518 13015KT P6SM SKC
     FM242300 16010KT P6SM FEW250
     FM250500 21013KT 3/4SM BR OVC008
     FM251100 22014KT 2SM BR SCT008
     FM251400 23015G25KT P6SM SCT250=

USA.gov is the U.S. government's official web portal to all federal, state and local government web resources and services.